^^
Station Historical Data
Daily Summary for September 1, 2017 Units:  Metric    English   Both
« Previous Day
Next Day »
Daily Weekly Monthly Yearly Custom
  High: Low: Average:
Temperature: 26.8 °C 4.7 °C 11.4 °C
Dew Point: -0.7 °C -12.6 °C -6.2 °C
Humidity: 53% 7% 34%
Wind Speed: 7.9km/h 0km/h 0.2km/h
Wind Gust: 11.3km/h - -
Wind- - SSE
Pressure: 1023.9 hPa 1018.2 hPa -
Precipitation: 0 mm    
Historical Graphs
 
 
Tabular Data for September 1, 2017
Time Temperature Dew Point Pressure Wind Wind Speed Wind Gust Humidity Rainfall Rate (Hourly) solar Conditions
00:00 10.4 °C -0.7 °C 1021.2 hPa Calm     46% 0 mm 0.0 W/m2
00:09 10.3 °C -0.8 °C 1021.2 hPa Calm     46% 0 mm 0.0 W/m2
00:17 10.2 °C -0.9 °C 1021.2 hPa Calm     46% 0 mm 0.0 W/m2
00:28 10.3 °C -1.4 °C 1021.2 hPa Calm     44% 0 mm 0.0 W/m2
00:35 9.8 °C -2.5 °C 1021.2 hPa Calm     42% 0 mm 0.0 W/m2
00:49 10.1 °C -3.2 °C 1021.2 hPa Calm     39% 0 mm 0.0 W/m2
00:57 10.3 °C -3.4 °C 1021.2 hPa Calm     38% 0 mm 0.0 W/m2
01:49 9.6 °C -2.7 °C 1020.9 hPa Calm     42% 0 mm 0.0 W/m2
01:54 9.3 °C -3 °C 1020.9 hPa Calm     42% 0 mm 0.0 W/m2
01:59 9.1 °C -3.1 °C 1020.9 hPa Calm     42% 0 mm 0.0 W/m2
02:04 8.9 °C -3 °C 1020.9 hPa Calm     43% 0 mm 0.0 W/m2
02:10 8.7 °C -3.2 °C 1020.5 hPa Calm     43% 0 mm 0.0 W/m2
02:15 8.5 °C -3.1 °C 1020.9 hPa Calm     44% 0 mm 0.0 W/m2
02:21 8.4 °C -3.2 °C 1020.9 hPa Calm     44% 0 mm 0.0 W/m2
02:26 8.1 °C -3.7 °C 1020.9 hPa Calm     43% 0 mm 0.0 W/m2
02:31 7.8 °C -3.1 °C 1020.9 hPa Calm     46% 0 mm 0.0 W/m2
02:41 7.1 °C -3.7 °C 1020.9 hPa Calm     46% 0 mm 0.0 W/m2
02:46 6.7 °C -3.8 °C 1020.5 hPa Calm     47% 0 mm 0.0 W/m2
02:56 6 °C -3.9 °C 1020.9 hPa Calm     49% 0 mm 0.0 W/m2
03:01 5.9 °C -3.7 °C 1020.9 hPa Calm     50% 0 mm 0.0 W/m2
03:06 5.7 °C -3.9 °C 1020.9 hPa Calm     50% 0 mm 0.0 W/m2
03:11 5.5 °C -3.8 °C 1020.9 hPa Calm     51% 0 mm 0.0 W/m2
03:16 5.4 °C -3.7 °C 1020.9 hPa Calm     52% 0 mm 0.0 W/m2
03:22 5.4 °C -3.7 °C 1020.9 hPa Calm     52% 0 mm 0.0 W/m2
03:27 5.3 °C -4 °C 1020.9 hPa Calm     51% 0 mm 0.0 W/m2
03:33 5.4 °C -3.7 °C 1020.9 hPa Calm     52% 0 mm 0.0 W/m2
03:38 5.5 °C -3.3 °C 1020.9 hPa Calm     53% 0 mm 0.0 W/m2
03:43 5.9 °C -3.2 °C 1020.9 hPa Calm     52% 0 mm 0.0 W/m2
03:48 5.9 °C -3.5 °C 1020.9 hPa Calm     51% 0 mm 0.0 W/m2
03:54 5.8 °C -3.8 °C 1020.9 hPa Calm     50% 0 mm 0.0 W/m2
03:58 5.5 °C -4.4 °C 1020.9 hPa Calm     49% 0 mm 0.0 W/m2
04:05 5.3 °C -4.3 °C 1021.2 hPa Calm     50% 0 mm 0.0 W/m2
04:09 5.1 °C -4.5 °C 1021.2 hPa Calm     50% 0 mm 0.0 W/m2
04:19 4.7 °C -5.1 °C 1021.2 hPa Calm     49% 0 mm 0.0 W/m2
04:45 4.7 °C -5.4 °C 1021.2 hPa Calm     48% 0 mm 0.0 W/m2
04:50 4.9 °C -5.8 °C 1021.2 hPa Calm     46% 0 mm 0.0 W/m2
05:00 5.7 °C -5.6 °C 1021.2 hPa Calm     44% 0 mm 0.0 W/m2
05:05 5.7 °C -5.9 °C 1021.2 hPa Calm     43% 0 mm 0.0 W/m2
05:10 5.6 °C -6 °C 1021.2 hPa Calm     43% 0 mm 0.0 W/m2
05:16 5.6 °C -6 °C 1021.6 hPa Calm     43% 0 mm 0.0 W/m2
05:21 5.4 °C -6.2 °C 1021.6 hPa Calm     43% 0 mm 0.0 W/m2
05:26 5.4 °C -6.5 °C 1021.6 hPa Calm     42% 0 mm 0.0 W/m2
05:32 5.8 °C -6.8 °C 1021.6 hPa Calm     40% 0 mm 0.0 W/m2
05:37 6.2 °C -6.7 °C 1021.6 hPa Calm     39% 0 mm 0.0 W/m2
05:42 6.3 °C -6.6 °C 1021.6 hPa Calm     39% 0 mm 0.0 W/m2
05:52 5.8 °C -7.1 °C 1021.9 hPa Calm     39% 0 mm 0.0 W/m2
06:07 5.3 °C -7.5 °C 1021.9 hPa Calm     39% 0 mm 5.0 W/m2
06:12 5.6 °C -7.6 °C 1022.2 hPa Calm     38% 0 mm 9.0 W/m2
06:23 5.6 °C -7.3 °C 1022.6 hPa Calm   4.8 km/h 39% 0 mm 12.0 W/m2
06:28 5.8 °C -7.4 °C 1022.6 hPa Calm     38% 0 mm 14.0 W/m2
06:33 5.9 °C -7.3 °C 1022.6 hPa Calm     38% 0 mm 18.0 W/m2
06:38 6.1 °C -7.2 °C 1022.9 hPa Calm     38% 0 mm 65.0 W/m2
06:48 7.1 °C -7 °C 1022.9 hPa Calm     36% 0 mm 98.0 W/m2
06:54 7.8 °C -6.4 °C 1022.9 hPa Calm     36% 0 mm 118.0 W/m2
06:58 8.6 °C -6.4 °C 1022.9 hPa Calm     34% 0 mm 141.0 W/m2
07:03 8.9 °C -6.5 °C 1022.9 hPa Calm     33% 0 mm 156.0 W/m2
07:13 9.5 °C -6.4 °C 1022.9 hPa Calm     32% 0 mm 197.0 W/m2
07:34 11.2 °C -6.2 °C 1023.2 hPa Calm     29% 0 mm 255.0 W/m2
08:31 14.6 °C -3.7 °C 1023.6 hPa SSE 4.7 km/h 4.8 km/h 28% 0 mm 432.0 W/m2
08:46 15.3 °C -3.6 °C 1023.9 hPa Calm   11.3 km/h 27% 0 mm 476.0 W/m2
09:02 15.8 °C -3.7 °C 1023.9 hPa Calm     26% 0 mm 520.0 W/m2
09:17 16.2 °C -3.3 °C 1023.9 hPa Calm   8 km/h 26% 0 mm 563.0 W/m2
09:43 17.6 °C -3.8 °C 1023.6 hPa Calm   3.2 km/h 23% 0 mm 633.0 W/m2
15:50 26.3 °C -9.1 °C 1018.2 hPa Calm     9% 0 mm 255.0 W/m2
16:00 26.3 °C -10.6 °C 1018.2 hPa Calm     8% 0 mm 227.0 W/m2
16:10 26.2 °C -10.7 °C 1018.2 hPa Calm     8% 0 mm 200.0 W/m2
16:31 26.7 °C -12 °C 1018.2 hPa Calm     7% 0 mm 153.0 W/m2
16:44 26.8 °C -10.2 °C 1018.2 hPa Calm     8% 0 mm 104.0 W/m2
16:54 26.6 °C -12.1 °C 1018.2 hPa Calm     7% 0 mm 70.0 W/m2
17:01 26.6 °C -12.1 °C 1018.5 hPa Calm     7% 0 mm 46.0 W/m2
17:15 25.7 °C -11 °C 1018.5 hPa SSE 7.9 km/h 8 km/h 8% 0 mm 23.0 W/m2
17:22 24.9 °C -10.2 °C 1018.5 hPa Calm   4.8 km/h 9% 0 mm 11.0 W/m2
17:37 24.1 °C -10.8 °C 1018.5 hPa Calm     9% 0 mm 5.0 W/m2
17:46 23.2 °C -10.1 °C 1018.5 hPa Calm     10% 0 mm 0.0 W/m2
17:57 22.3 °C -10.8 °C 1018.5 hPa Calm     10% 0 mm 0.0 W/m2
18:04 21.5 °C -10.2 °C 1018.5 hPa Calm     11% 0 mm 0.0 W/m2
18:25 19.9 °C -9.4 °C 1018.8 hPa Calm     13% 0 mm 0.0 W/m2
18:40 19.2 °C -9 °C 1018.8 hPa Calm     14% 0 mm 0.0 W/m2
19:37 16.2 °C -8.9 °C 1019.2 hPa Calm     17% 0 mm 0.0 W/m2
20:08 14.9 °C -10 °C 1019.5 hPa Calm     17% 0 mm 0.0 W/m2
20:42 15.8 °C -10 °C 1019.9 hPa Calm     16% 0 mm 0.0 W/m2
20:57 16.4 °C -10.3 °C 1019.9 hPa Calm     15% 0 mm 0.0 W/m2
21:11 15.6 °C -11.8 °C 1020.2 hPa Calm     14% 0 mm 0.0 W/m2
21:19 15.5 °C -11.9 °C 1020.2 hPa Calm     14% 0 mm 0.0 W/m2
21:24 15.8 °C -12.6 °C 1020.2 hPa Calm     13% 0 mm 0.0 W/m2
21:35 16.3 °C -12.2 °C 1020.2 hPa Calm     13% 0 mm 0.0 W/m2
Canyon Roadhouse, Fishriver Canyon, Namibia
Compliments of Weather Underground - 2 mb